createdAt,value
2019-02-21T00:02:29.801Z,13.13
2019-02-21T00:05:00.351Z,13.60
2019-02-21T00:07:30.348Z,13.38
2019-02-21T00:10:00.844Z,14.03
2019-02-21T00:12:31.296Z,13.30
2019-02-21T00:15:01.426Z,14.03
2019-02-21T00:17:31.739Z,15.20
2019-02-21T00:20:01.612Z,14.75
2019-02-21T00:22:31.987Z,13.28
2019-02-21T00:25:01.907Z,12.45
2019-02-21T00:27:32.013Z,13.25
2019-02-21T00:30:02.336Z,13.80
2019-02-21T00:32:32.822Z,14.23
2019-02-21T00:35:02.915Z,14.75
2019-02-21T00:37:33.053Z,15.18
2019-02-21T00:40:03.070Z,14.00
2019-02-21T00:42:33.188Z,13.40
2019-02-21T00:45:03.351Z,13.98
2019-02-21T00:47:33.776Z,13.85
2019-02-21T00:50:06.535Z,14.00
2019-02-21T00:52:36.460Z,14.47
2019-02-21T00:55:06.839Z,14.15
2019-02-21T00:57:37.679Z,14.63
2019-02-21T01:00:09.771Z,14.93
2019-02-21T01:02:55.888Z,15.45
2019-02-21T01:05:29.459Z,16.07
2019-02-21T01:07:59.319Z,15.83
2019-02-21T01:10:29.413Z,18.65
2019-02-21T01:13:00.209Z,16.75
2019-02-21T01:15:33.771Z,16.05
2019-02-21T01:18:04.267Z,17.17
2019-02-21T01:20:34.374Z,16.93
2019-02-21T01:23:07.274Z,15.53
2019-02-21T01:25:40.736Z,16.90
2019-02-21T01:28:10.812Z,16.57
2019-02-21T01:30:40.734Z,16.75
2019-02-21T01:33:11.526Z,15.90
2019-02-21T01:35:42.326Z,15.65
2019-02-21T01:38:15.528Z,16.62
2019-02-21T01:40:45.562Z,15.83
2019-02-21T01:43:15.530Z,17.55
2019-02-21T01:45:48.306Z,16.85
2019-02-21T01:48:18.528Z,16.32
2019-02-21T01:50:49.424Z,15.30
2019-02-21T01:53:23.435Z,16.62
2019-02-21T01:55:53.700Z,16.20
2019-02-21T01:58:23.995Z,15.90
2019-02-21T02:00:53.792Z,15.65
2019-02-21T02:03:23.930Z,16.17
2019-02-21T02:05:54.755Z,15.75
2019-02-21T02:08:27.822Z,16.23
2019-02-21T02:10:58.259Z,17.15
2019-02-21T02:13:28.370Z,16.95
2019-02-21T02:16:00.854Z,17.57
2019-02-21T02:18:30.972Z,18.27
2019-02-21T02:21:01.826Z,18.40
2019-02-21T02:23:31.868Z,17.00
2019-02-21T02:26:02.208Z,16.42
2019-02-21T02:28:32.217Z,17.67
2019-02-21T02:31:02.998Z,17.55
2019-02-21T02:33:33.208Z,16.62
2019-02-21T02:36:03.413Z,15.45
2019-02-21T02:38:33.888Z,17.48
2019-02-21T02:41:04.175Z,17.27
2019-02-21T02:43:34.188Z,16.67
2019-02-21T02:46:04.518Z,18.30
2019-02-21T02:48:34.498Z,18.48
2019-02-21T02:51:04.908Z,17.00
2019-02-21T02:53:34.789Z,16.97
2019-02-21T02:56:05.245Z,19.12
2019-02-21T02:58:35.580Z,18.70
2019-02-21T03:01:05.779Z,17.50
2019-02-21T03:03:36.680Z,18.42
2019-02-21T03:06:06.886Z,18.80
2019-02-21T03:08:37.521Z,19.05
2019-02-21T03:11:07.737Z,18.45
2019-02-21T03:13:37.856Z,17.70
2019-02-21T03:16:22.806Z,17.70
2019-02-21T03:18:40.874Z,18.23
2019-02-21T03:21:10.979Z,18.20
2019-02-21T03:23:40.772Z,16.35
2019-02-21T03:26:14.989Z,17.37
2019-02-21T03:28:45.834Z,17.17
2019-02-21T03:31:18.822Z,17.42
2019-02-21T03:33:49.245Z,17.02
2019-02-21T03:36:19.690Z,16.75
2019-02-21T03:38:50.427Z,14.73
2019-02-21T03:41:20.620Z,17.73
2019-02-21T03:43:51.456Z,15.75
2019-02-21T03:46:22.258Z,15.85
2019-02-21T03:48:52.612Z,15.40
2019-02-21T03:51:26.600Z,15.63
2019-02-21T03:53:57.172Z,16.02
2019-02-21T03:56:28.973Z,15.70
2019-02-21T03:59:09.470Z,15.80
2019-02-21T04:01:42.791Z,15.65
2019-02-21T04:04:13.185Z,15.65
2019-02-21T04:06:43.080Z,16.30
2019-02-21T04:09:13.666Z,15.05
2019-02-21T04:11:44.361Z,15.65
2019-02-21T04:14:14.418Z,16.23
2019-02-21T04:16:44.324Z,14.73
2019-02-21T04:19:16.096Z,16.73
2019-02-21T04:21:46.524Z,16.73
2019-02-21T04:24:17.213Z,16.02
2019-02-21T04:26:47.374Z,17.37
2019-02-21T04:29:17.850Z,15.85
2019-02-21T04:31:48.538Z,15.68
2019-02-21T04:34:18.696Z,17.25
2019-02-21T04:36:49.398Z,15.10
2019-02-21T04:39:19.819Z,17.55
2019-02-21T04:41:50.049Z,17.65
2019-02-21T04:44:23.088Z,16.82
2019-02-21T04:46:53.105Z,16.25
2019-02-21T04:49:23.204Z,15.90
2019-02-21T04:51:53.139Z,18.42
2019-02-21T04:54:23.456Z,16.45
2019-02-21T04:56:53.931Z,16.10
2019-02-21T04:59:24.040Z,16.60
2019-02-21T05:01:53.945Z,17.62
2019-02-21T05:04:24.812Z,16.05
2019-02-21T05:06:55.552Z,16.85
2019-02-21T05:09:27.274Z,17.15
2019-02-21T05:11:58.253Z,17.17
2019-02-21T05:14:28.511Z,16.77
2019-02-21T05:17:00.697Z,15.83
2019-02-21T05:19:31.235Z,16.62
2019-02-21T05:22:09.163Z,16.70
2019-02-21T05:24:38.957Z,17.02
2019-02-21T05:27:13.681Z,16.00
2019-02-21T05:29:43.964Z,17.62
2019-02-21T05:32:40.462Z,17.02
2019-02-21T05:35:35.129Z,17.00
2019-02-21T05:38:32.571Z,16.50
2019-02-21T05:41:13.415Z,18.00
2019-02-21T05:44:01.323Z,18.62
2019-02-21T05:46:48.770Z,18.45
2019-02-21T05:49:43.831Z,16.87
2019-02-21T05:52:27.523Z,17.55
2019-02-21T05:55:11.193Z,17.25
2019-02-21T05:57:59.195Z,17.40
2019-02-21T06:00:44.162Z,17.90
2019-02-21T06:03:30.774Z,18.92
2019-02-21T06:06:47.368Z,18.42
2019-02-21T06:09:32.451Z,17.62
2019-02-21T06:12:33.240Z,17.92
2019-02-21T06:15:26.920Z,17.52
2019-02-21T06:18:11.320Z,17.52
2019-02-21T06:21:09.243Z,18.07
2019-02-21T06:23:49.234Z,17.80
2019-02-21T06:26:26.837Z,18.40
2019-02-21T06:29:04.108Z,19.92
2019-02-21T06:31:33.883Z,18.62
2019-02-21T06:34:03.580Z,18.87
2019-02-21T06:36:33.483Z,18.55
2019-02-21T06:39:04.115Z,20.05
2019-02-21T06:41:34.126Z,18.30
2019-02-21T06:44:04.110Z,19.07
2019-02-21T06:46:33.752Z,21.15
2019-02-21T06:49:04.112Z,19.23
2019-02-21T06:51:33.987Z,21.60
2019-02-21T06:54:03.991Z,19.95
2019-02-21T06:56:33.627Z,21.12
2019-02-21T06:59:03.933Z,20.10
2019-02-21T07:01:33.754Z,21.95
2019-02-21T07:04:03.391Z,20.55
2019-02-21T07:06:33.174Z,21.55
2019-02-21T07:09:02.776Z,23.18
2019-02-21T07:11:32.667Z,23.92
2019-02-21T07:14:02.426Z,23.05
2019-02-21T07:16:32.344Z,24.60
2019-02-21T07:19:02.581Z,23.67
2019-02-21T07:21:32.535Z,24.07
2019-02-21T07:24:02.377Z,24.95
2019-02-21T07:26:31.852Z,23.32
2019-02-21T07:29:01.763Z,23.42
2019-02-21T07:31:32.633Z,26.30
2019-02-21T07:34:02.904Z,23.30
2019-02-21T07:36:32.914Z,24.47
2019-02-21T07:39:16.494Z,27.30
2019-02-21T07:41:35.788Z,26.23
2019-02-21T07:44:12.123Z,26.77
2019-02-21T07:46:36.994Z,25.32
2019-02-21T07:49:06.747Z,26.37
2019-02-21T07:51:36.504Z,26.40
2019-02-21T07:54:06.507Z,26.23
2019-02-21T07:56:41.873Z,25.80
2019-02-21T07:59:07.702Z,27.13
2019-02-21T08:01:37.725Z,24.63
2019-02-21T08:04:07.408Z,25.35
2019-02-21T08:06:37.256Z,25.57
2019-02-21T08:09:08.666Z,25.23
2019-02-21T08:11:38.909Z,26.55
2019-02-21T08:14:08.455Z,27.02
2019-02-21T08:16:38.306Z,26.85
2019-02-21T08:19:07.970Z,27.42
2019-02-21T08:21:37.778Z,27.20
2019-02-21T08:24:07.706Z,29.50
2019-02-21T08:26:37.499Z,27.82
2019-02-21T08:29:07.456Z,28.38
2019-02-21T08:31:37.353Z,29.55
2019-02-21T08:34:11.063Z,31.02
2019-02-21T08:36:40.686Z,26.75
2019-02-21T08:39:11.185Z,29.77
2019-02-21T08:41:40.820Z,29.20
2019-02-21T08:44:10.346Z,29.65
2019-02-21T08:46:40.136Z,30.17
2019-02-21T08:49:09.833Z,29.87
2019-02-21T08:51:39.620Z,29.87
2019-02-21T08:54:11.408Z,29.45
2019-02-21T08:56:40.702Z,27.60
2019-02-21T08:59:10.463Z,30.77
2019-02-21T09:01:40.102Z,29.35
2019-02-21T09:04:14.848Z,29.00
2019-02-21T09:06:41.273Z,31.77
2019-02-21T09:09:11.185Z,31.02
2019-02-21T09:11:41.425Z,33.35
2019-02-21T09:14:10.876Z,31.30
2019-02-21T09:16:40.282Z,31.82
2019-02-21T09:19:10.100Z,33.55
2019-02-21T09:21:39.627Z,31.97
2019-02-21T09:24:09.128Z,32.67
2019-02-21T09:26:38.778Z,32.45
2019-02-21T09:29:14.627Z,30.50
2019-02-21T09:31:44.118Z,30.45
2019-02-21T09:34:20.895Z,29.98
2019-02-21T09:36:45.387Z,29.92
2019-02-21T09:39:16.835Z,33.30
2019-02-21T09:41:48.987Z,28.62
2019-02-21T09:44:18.364Z,29.42
2019-02-21T09:46:47.866Z,30.57
2019-02-21T09:49:17.793Z,28.12
2019-02-21T09:51:47.542Z,29.23
2019-02-21T09:54:19.025Z,26.95
2019-02-21T09:56:52.738Z,30.85
2019-02-21T09:59:19.950Z,29.85
2019-02-21T10:01:49.940Z,32.13
2019-02-21T10:04:19.818Z,27.55
2019-02-21T10:06:49.341Z,30.75
2019-02-21T10:09:19.035Z,30.05
2019-02-21T10:11:48.616Z,30.88
2019-02-21T10:14:18.039Z,30.32
2019-02-21T10:16:49.588Z,31.87
2019-02-21T10:19:19.098Z,31.35
2019-02-21T10:21:48.915Z,30.48
2019-02-21T10:24:18.817Z,29.12
2019-02-21T10:26:48.749Z,29.57
2019-02-21T10:29:18.500Z,28.60
2019-02-21T10:31:47.951Z,28.10
2019-02-21T10:34:17.906Z,27.97
2019-02-21T10:36:47.728Z,28.38
2019-02-21T10:39:17.787Z,28.60
2019-02-21T10:41:47.663Z,31.07
2019-02-21T10:44:17.204Z,29.47
2019-02-21T10:46:47.056Z,25.30
2019-02-21T10:49:16.722Z,27.40
2019-02-21T10:51:46.453Z,27.17
2019-02-21T10:54:16.249Z,27.60
2019-02-21T10:56:45.954Z,24.33
2019-02-21T10:59:15.656Z,26.13
2019-02-21T11:01:45.364Z,27.47
2019-02-21T11:04:14.970Z,26.20
2019-02-21T11:06:45.136Z,26.83
2019-02-21T11:09:24.115Z,22.40
2019-02-21T11:11:53.902Z,26.40
2019-02-21T11:14:23.773Z,24.30
2019-02-21T11:16:53.463Z,25.33
2019-02-21T11:19:23.173Z,23.33
2019-02-21T11:21:53.169Z,25.07
2019-02-21T11:24:22.931Z,24.73
2019-02-21T11:26:52.703Z,24.03
2019-02-21T11:29:22.396Z,24.20
2019-02-21T11:31:52.207Z,26.70
2019-02-21T11:34:21.738Z,24.33
2019-02-21T11:36:51.418Z,24.87
2019-02-21T11:39:21.136Z,21.47
2019-02-21T11:41:50.840Z,19.53
2019-02-21T11:44:20.703Z,20.77
2019-02-21T11:46:50.534Z,21.17
2019-02-21T11:49:20.192Z,19.37
2019-02-21T11:51:50.176Z,18.47
2019-02-21T11:54:26.931Z,18.50
2019-02-21T11:56:51.372Z,19.53
2019-02-21T11:59:21.254Z,19.30
2019-02-21T12:01:50.891Z,19.10
2019-02-21T12:04:20.774Z,18.53
2019-02-21T12:06:50.483Z,19.40
2019-02-21T12:09:20.061Z,18.87
2019-02-21T12:11:49.969Z,19.57
2019-02-21T12:14:19.523Z,21.03
2019-02-21T12:16:49.455Z,19.07
2019-02-21T12:19:18.869Z,17.70
2019-02-21T12:21:58.330Z,15.83
2019-02-21T12:24:19.564Z,19.40
2019-02-21T12:26:49.171Z,18.43
2019-02-21T12:29:19.083Z,18.17
2019-02-21T12:31:48.793Z,22.40
2019-02-21T12:34:18.607Z,20.40
2019-02-21T12:36:48.314Z,20.50
2019-02-21T12:39:18.248Z,16.93
2019-02-21T12:41:48.348Z,16.83
2019-02-21T12:44:18.014Z,16.90
2019-02-21T12:46:47.456Z,15.07
2019-02-21T12:49:17.298Z,17.97
2019-02-21T12:51:47.195Z,17.83
2019-02-21T12:54:16.781Z,19.40
2019-02-21T12:56:46.448Z,17.57
2019-02-21T12:59:16.405Z,15.23
2019-02-21T13:01:46.209Z,18.90
2019-02-21T13:04:15.728Z,16.97
2019-02-21T13:06:45.364Z,18.83
2019-02-21T13:09:15.012Z,16.70
2019-02-21T13:11:44.747Z,16.50
2019-02-21T13:14:14.246Z,16.20
2019-02-21T13:16:43.851Z,16.10
2019-02-21T13:19:13.391Z,17.53
2019-02-21T13:21:43.061Z,15.37
2019-02-21T13:24:12.876Z,15.30
2019-02-21T13:26:42.247Z,14.93
2019-02-21T13:29:12.007Z,14.90
2019-02-21T13:31:41.801Z,13.90
2019-02-21T13:34:11.196Z,12.67
2019-02-21T13:36:40.682Z,12.63
2019-02-21T13:39:10.304Z,11.03
2019-02-21T13:41:40.089Z,12.07
2019-02-21T13:44:09.541Z,12.23
2019-02-21T13:46:41.345Z,12.60
2019-02-21T13:49:10.203Z,12.77
2019-02-21T13:51:40.077Z,13.90
2019-02-21T13:54:09.844Z,10.70
2019-02-21T13:56:39.288Z,10.67
2019-02-21T13:59:08.897Z,10.70
2019-02-21T14:01:38.648Z,12.07
2019-02-21T14:04:09.028Z,13.33
2019-02-21T14:06:38.463Z,14.90
2019-02-21T14:09:08.407Z,12.87
2019-02-21T14:11:38.043Z,13.33
2019-02-21T14:14:07.973Z,14.13
2019-02-21T14:16:46.127Z,13.00
2019-02-21T14:19:09.370Z,10.90
2019-02-21T14:21:38.934Z,12.50
2019-02-21T14:24:09.360Z,10.30
2019-02-21T14:26:39.170Z,11.00
2019-02-21T14:29:09.244Z,8.80
2019-02-21T14:31:38.584Z,9.30
2019-02-21T14:34:08.399Z,9.20
2019-02-21T14:36:38.041Z,11.50
2019-02-21T14:39:10.540Z,10.57
2019-02-21T14:41:40.202Z,12.07
2019-02-21T14:44:09.791Z,12.60
2019-02-21T14:46:39.240Z,12.13
2019-02-21T14:49:09.001Z,12.30
2019-02-21T14:51:38.520Z,11.57
2019-02-21T14:54:08.520Z,12.50
2019-02-21T14:56:38.404Z,13.97
2019-02-21T14:59:08.402Z,13.40
2019-02-21T15:01:38.401Z,13.80
2019-02-21T15:04:08.162Z,16.00
2019-02-21T15:06:37.859Z,14.80
2019-02-21T15:09:07.687Z,14.07
2019-02-21T15:11:37.561Z,15.87
2019-02-21T15:14:07.114Z,16.23
2019-02-21T15:16:37.198Z,15.23
2019-02-21T15:19:06.720Z,15.37
2019-02-21T15:21:36.243Z,15.90
2019-02-21T15:24:05.880Z,18.20
2019-02-21T15:26:35.764Z,16.43
2019-02-21T15:29:06.000Z,19.33
2019-02-21T15:31:35.794Z,15.87
2019-02-21T15:34:05.796Z,17.63
2019-02-21T15:36:38.486Z,18.07
2019-02-21T15:39:08.771Z,17.57
2019-02-21T15:41:38.517Z,17.70
2019-02-21T15:44:08.224Z,17.80
2019-02-21T15:46:38.047Z,17.50
2019-02-21T15:49:07.876Z,20.40
2019-02-21T15:51:37.761Z,16.53
2019-02-21T15:54:07.771Z,20.47
2019-02-21T15:56:37.379Z,18.60
2019-02-21T15:59:07.599Z,18.57
2019-02-21T16:01:47.004Z,18.70
2019-02-21T16:04:08.636Z,16.80
2019-02-21T16:06:50.812Z,19.00
2019-02-21T16:09:16.344Z,18.10
2019-02-21T16:11:42.079Z,18.97
2019-02-21T16:14:11.758Z,18.77
2019-02-21T16:16:41.636Z,19.40
2019-02-21T16:19:11.104Z,19.50
2019-02-21T16:21:40.632Z,19.43
2019-02-21T16:24:10.558Z,18.33
2019-02-21T16:26:40.560Z,18.27
2019-02-21T16:29:10.321Z,18.90
2019-02-21T16:31:40.082Z,20.87
2019-02-21T16:34:09.967Z,19.17
2019-02-21T16:36:39.600Z,20.20
2019-02-21T16:39:09.237Z,21.37
2019-02-21T16:41:38.876Z,18.93
2019-02-21T16:44:08.602Z,20.40
2019-02-21T16:46:38.511Z,20.87
2019-02-21T16:49:08.011Z,20.23
2019-02-21T16:51:37.821Z,20.30
2019-02-21T16:54:07.533Z,21.97
2019-02-21T16:56:37.038Z,20.27
2019-02-21T16:59:07.076Z,21.67
2019-02-21T17:01:36.720Z,21.77
2019-02-21T17:04:06.260Z,19.43
2019-02-21T17:06:36.759Z,21.07
2019-02-21T17:09:07.801Z,20.43
2019-02-21T17:11:37.807Z,20.23
2019-02-21T17:14:07.874Z,20.50
2019-02-21T17:16:38.198Z,20.57
2019-02-21T17:19:08.112Z,19.27
2019-02-21T17:21:38.180Z,20.67
2019-02-21T17:24:08.241Z,20.10
2019-02-21T17:26:38.258Z,19.00
2019-02-21T17:29:08.396Z,22.20
2019-02-21T17:31:38.306Z,20.40
2019-02-21T17:34:08.703Z,21.57
2019-02-21T17:36:38.161Z,21.80
2019-02-21T17:39:09.125Z,20.20
2019-02-21T17:41:39.354Z,21.03
2019-02-21T17:44:09.232Z,20.47
2019-02-21T17:46:39.010Z,22.60
2019-02-21T17:49:08.787Z,24.10
2019-02-21T17:51:38.725Z,20.97
2019-02-21T17:54:08.524Z,23.63
2019-02-21T17:56:38.760Z,23.30
2019-02-21T17:59:08.397Z,23.90
2019-02-21T18:01:38.154Z,24.30
2019-02-21T18:04:07.805Z,22.03
2019-02-21T18:06:37.469Z,23.30
2019-02-21T18:09:07.923Z,23.87
2019-02-21T18:11:37.677Z,23.97
2019-02-21T18:14:07.802Z,23.07
2019-02-21T18:16:37.685Z,23.83
2019-02-21T18:19:07.556Z,26.47
2019-02-21T18:21:37.441Z,25.90
2019-02-21T18:24:07.405Z,23.70
2019-02-21T18:26:37.919Z,24.27
2019-02-21T18:29:07.918Z,23.55
2019-02-21T18:31:37.865Z,21.80
2019-02-21T18:34:07.804Z,22.87
2019-02-21T18:36:37.459Z,21.20
2019-02-21T18:39:08.396Z,22.10
2019-02-21T18:41:38.404Z,23.20
2019-02-21T18:44:08.152Z,23.83
2019-02-21T18:46:38.293Z,24.47
2019-02-21T18:49:08.045Z,23.62
2019-02-21T18:51:38.173Z,23.92
2019-02-21T18:54:08.285Z,23.18
2019-02-21T18:56:38.197Z,22.10
2019-02-21T18:59:08.328Z,24.40
2019-02-21T19:01:38.391Z,25.40
2019-02-21T19:04:08.773Z,25.50
2019-02-21T19:06:38.520Z,26.45
2019-02-21T19:09:09.598Z,28.23
2019-02-21T19:11:39.440Z,26.42
2019-02-21T19:14:08.877Z,26.82
2019-02-21T19:16:38.834Z,27.77
2019-02-21T19:19:08.552Z,29.05
2019-02-21T19:21:38.510Z,30.60
2019-02-21T19:24:08.638Z,28.15
2019-02-21T19:26:38.405Z,30.27
2019-02-21T19:29:08.393Z,29.45
2019-02-21T19:31:38.293Z,30.45
2019-02-21T19:34:07.969Z,30.52
2019-02-21T19:36:37.853Z,31.90
2019-02-21T19:39:08.031Z,29.07
2019-02-21T19:41:38.532Z,31.23
2019-02-21T19:44:09.403Z,30.08
2019-02-21T19:46:39.481Z,30.85
2019-02-21T19:49:09.362Z,28.95
2019-02-21T19:51:39.478Z,27.48
2019-02-21T19:54:09.354Z,28.45
2019-02-21T19:56:39.088Z,29.00
2019-02-21T19:59:09.308Z,27.32
2019-02-21T20:01:39.497Z,27.95
2019-02-21T20:04:09.358Z,29.98
2019-02-21T20:06:39.364Z,28.25
2019-02-21T20:09:10.671Z,27.17
2019-02-21T20:11:41.027Z,29.80
2019-02-21T20:14:10.908Z,30.95
2019-02-21T20:16:40.650Z,27.73
2019-02-21T20:19:17.157Z,29.40
2019-02-21T20:21:46.852Z,27.85
2019-02-21T20:24:16.918Z,27.85
2019-02-21T20:26:47.036Z,27.22
2019-02-21T20:29:17.291Z,26.25
2019-02-21T20:31:48.828Z,27.87
2019-02-21T20:34:19.051Z,26.42
2019-02-21T20:36:51.394Z,27.90
2019-02-21T20:39:21.119Z,29.35
2019-02-21T20:41:51.229Z,29.50
2019-02-21T20:44:21.509Z,26.52
2019-02-21T20:46:51.683Z,28.05
2019-02-21T20:49:21.491Z,28.10
2019-02-21T20:51:52.384Z,33.08
2019-02-21T20:54:22.551Z,31.93
2019-02-21T20:56:52.551Z,29.40
2019-02-21T20:59:22.803Z,31.15
2019-02-21T21:01:52.692Z,29.90
2019-02-21T21:04:22.649Z,30.08
2019-02-21T21:06:52.533Z,31.50
2019-02-21T21:09:22.641Z,34.38
2019-02-21T21:11:52.790Z,33.60
2019-02-21T21:14:22.892Z,31.45
2019-02-21T21:16:53.287Z,30.82
2019-02-21T21:19:23.578Z,31.40
2019-02-21T21:21:53.898Z,33.88
2019-02-21T21:24:31.567Z,32.35
2019-02-21T21:27:02.037Z,33.88
2019-02-21T21:29:31.908Z,32.98
2019-02-21T21:32:01.789Z,31.82
2019-02-21T21:34:31.489Z,35.98
2019-02-21T21:37:01.550Z,33.92
2019-02-21T21:39:37.570Z,38.67
2019-02-21T21:42:08.410Z,36.68
2019-02-21T21:44:38.513Z,37.20
2019-02-21T21:47:08.556Z,36.00
2019-02-21T21:49:38.866Z,41.90
2019-02-21T21:52:09.029Z,38.23
2019-02-21T21:54:39.470Z,39.03
2019-02-21T21:57:09.638Z,41.45
2019-02-21T21:59:39.593Z,38.98
2019-02-21T22:02:09.559Z,42.20
2019-02-21T22:04:39.471Z,42.00
2019-02-21T22:07:09.230Z,42.62
2019-02-21T22:09:39.226Z,38.45
2019-02-21T22:12:09.117Z,41.30
2019-02-21T22:14:39.105Z,38.90
2019-02-21T22:17:15.113Z,43.48
2019-02-21T22:19:44.866Z,38.50
2019-02-21T22:22:15.054Z,40.17
2019-02-21T22:24:44.770Z,39.30
2019-02-21T22:27:14.993Z,40.65
2019-02-21T22:29:45.224Z,40.80
2019-02-21T22:32:15.710Z,43.15
2019-02-21T22:34:47.187Z,42.33
2019-02-21T22:37:17.257Z,40.78
2019-02-21T22:39:47.152Z,41.25
2019-02-21T22:42:18.094Z,39.88
2019-02-21T22:44:48.444Z,42.33
2019-02-21T22:47:18.585Z,42.83
2019-02-21T22:49:48.830Z,44.25
2019-02-21T22:52:18.688Z,42.05
2019-02-21T22:54:48.435Z,41.25
2019-02-21T22:57:18.674Z,42.17
2019-02-21T22:59:52.794Z,39.85
2019-02-21T23:02:26.399Z,41.85
2019-02-21T23:05:37.911Z,42.75
2019-02-21T23:08:37.906Z,42.78
2019-02-21T23:11:08.280Z,43.65
2019-02-21T23:13:38.633Z,43.05
2019-02-21T23:16:09.493Z,43.45
2019-02-21T23:18:40.004Z,42.88
2019-02-21T23:21:10.188Z,43.90
2019-02-21T23:23:40.190Z,43.50
2019-02-21T23:26:11.503Z,44.80
2019-02-21T23:28:42.104Z,45.83
2019-02-21T23:31:14.162Z,43.75
2019-02-21T23:33:51.073Z,42.33
2019-02-21T23:36:21.713Z,45.85
2019-02-21T23:38:51.971Z,44.83
2019-02-21T23:41:22.189Z,42.35
2019-02-21T23:43:52.543Z,45.12
2019-02-21T23:46:22.542Z,43.78
2019-02-21T23:48:52.434Z,42.73
2019-02-21T23:51:22.425Z,42.50
2019-02-21T23:54:02.477Z,41.05
2019-02-21T23:56:23.991Z,40.05
2019-02-21T23:58:54.006Z,40.10
